createdAt,value
2018-10-18T00:00:23.725Z,8.37
2018-10-18T00:01:27.125Z,8.20
2018-10-18T00:02:30.523Z,7.40
2018-10-18T00:03:33.969Z,7.90
2018-10-18T00:04:37.364Z,8.20
2018-10-18T00:05:40.756Z,8.73
2018-10-18T00:06:44.207Z,8.03
2018-10-18T00:07:47.647Z,6.90
2018-10-18T00:08:51.175Z,7.30
2018-10-18T00:09:54.623Z,7.80
2018-10-18T00:10:58.120Z,7.60
2018-10-18T00:12:01.564Z,8.37
2018-10-18T00:13:05.020Z,8.63
2018-10-18T00:14:08.506Z,7.60
2018-10-18T00:15:12.039Z,7.67
2018-10-18T00:16:15.414Z,8.17
2018-10-18T00:17:24.227Z,8.37
2018-10-18T00:18:27.597Z,7.50
2018-10-18T00:19:31.034Z,7.80
2018-10-18T00:20:34.481Z,7.40
2018-10-18T00:21:37.928Z,7.30
2018-10-18T00:22:41.489Z,6.63
2018-10-18T00:23:44.900Z,7.93
2018-10-18T00:24:48.328Z,8.17
2018-10-18T00:25:51.768Z,7.90
2018-10-18T00:26:55.159Z,8.33
2018-10-18T00:27:58.589Z,7.00
2018-10-18T00:29:02.031Z,7.67
2018-10-18T00:30:07.852Z,7.70
2018-10-18T00:31:11.202Z,7.50
2018-10-18T00:32:14.616Z,7.60
2018-10-18T00:33:18.029Z,7.97
2018-10-18T00:34:21.430Z,8.00
2018-10-18T00:35:24.859Z,8.60
2018-10-18T00:36:28.337Z,7.60
2018-10-18T00:37:31.714Z,7.83
2018-10-18T00:38:35.122Z,7.43
2018-10-18T00:39:38.528Z,7.67
2018-10-18T00:40:41.970Z,7.87
2018-10-18T00:41:45.397Z,7.20
2018-10-18T00:42:48.846Z,8.00
2018-10-18T00:43:52.229Z,7.20
2018-10-18T00:44:55.696Z,7.80
2018-10-18T00:45:59.088Z,7.80
2018-10-18T00:47:02.533Z,7.67
2018-10-18T00:48:06.025Z,7.30
2018-10-18T00:49:09.509Z,7.60
2018-10-18T00:50:13.049Z,7.50
2018-10-18T00:51:16.422Z,7.63
2018-10-18T00:52:20.193Z,8.13
2018-10-18T00:53:23.693Z,7.50
2018-10-18T00:54:27.209Z,6.97
2018-10-18T00:55:30.932Z,7.23
2018-10-18T00:56:34.298Z,7.77
2018-10-18T00:57:37.837Z,7.60
2018-10-18T00:58:41.352Z,8.33
2018-10-18T00:59:44.745Z,7.77
2018-10-18T01:00:48.164Z,7.20
2018-10-18T01:01:51.561Z,7.43
2018-10-18T01:02:54.995Z,6.70
2018-10-18T01:03:58.491Z,7.57
2018-10-18T01:05:01.972Z,7.70
2018-10-18T01:06:05.616Z,7.67
2018-10-18T01:07:09.104Z,7.87
2018-10-18T01:08:12.620Z,6.50
2018-10-18T01:09:16.017Z,7.10
2018-10-18T01:10:19.443Z,7.73
2018-10-18T01:11:22.866Z,7.20
2018-10-18T01:12:27.045Z,7.87
2018-10-18T01:13:30.423Z,6.90
2018-10-18T01:14:33.807Z,7.57
2018-10-18T01:15:37.196Z,7.10
2018-10-18T01:16:40.812Z,7.30
2018-10-18T01:17:44.246Z,7.30
2018-10-18T01:18:47.661Z,7.40
2018-10-18T01:19:51.085Z,7.60
2018-10-18T01:20:54.555Z,6.80
2018-10-18T01:21:57.992Z,8.07
2018-10-18T01:23:01.407Z,7.50
2018-10-18T01:24:05.248Z,6.60
2018-10-18T01:25:08.620Z,7.57
2018-10-18T01:26:12.091Z,6.70
2018-10-18T01:27:15.434Z,7.33
2018-10-18T01:28:19.047Z,7.60
2018-10-18T01:29:22.474Z,7.37
2018-10-18T01:30:25.910Z,7.67
2018-10-18T01:31:29.550Z,8.10
2018-10-18T01:32:32.980Z,7.30
2018-10-18T01:33:36.380Z,6.93
2018-10-18T01:34:40.199Z,7.30
2018-10-18T01:35:43.632Z,7.23
2018-10-18T01:36:47.034Z,7.40
2018-10-18T01:37:50.457Z,7.30
2018-10-18T01:38:53.954Z,7.60
2018-10-18T01:39:57.412Z,8.03
2018-10-18T01:41:00.814Z,7.43
2018-10-18T01:42:04.248Z,8.00
2018-10-18T01:43:07.678Z,8.03
2018-10-18T01:44:11.435Z,7.70
2018-10-18T01:45:14.810Z,7.17
2018-10-18T01:46:18.226Z,7.40
2018-10-18T01:47:21.637Z,7.87
2018-10-18T01:48:25.061Z,7.33
2018-10-18T01:49:28.580Z,7.13
2018-10-18T01:50:32.034Z,7.17
2018-10-18T01:51:35.699Z,7.20
2018-10-18T01:52:39.178Z,7.90
2018-10-18T01:53:42.567Z,7.90
2018-10-18T01:54:45.952Z,7.30
2018-10-18T01:55:49.358Z,7.17
2018-10-18T01:56:52.806Z,7.23
2018-10-18T01:57:56.263Z,7.20
2018-10-18T01:59:00.044Z,7.30
2018-10-18T02:00:03.576Z,8.53
2018-10-18T02:01:06.904Z,7.23
2018-10-18T02:02:10.453Z,6.50
2018-10-18T02:03:13.831Z,7.17
2018-10-18T02:04:17.237Z,7.30
2018-10-18T02:05:20.639Z,7.80
2018-10-18T02:06:24.124Z,7.70
2018-10-18T02:07:27.549Z,7.20
2018-10-18T02:08:30.953Z,8.07
2018-10-18T02:09:34.347Z,8.10
2018-10-18T02:10:37.838Z,8.17
2018-10-18T02:11:42.069Z,7.97
2018-10-18T02:12:45.480Z,7.87
2018-10-18T02:13:48.934Z,7.90
2018-10-18T02:14:52.298Z,7.83
2018-10-18T02:15:55.726Z,7.70
2018-10-18T02:16:59.176Z,7.83
2018-10-18T02:18:02.641Z,7.60
2018-10-18T02:19:06.361Z,7.50
2018-10-18T02:20:10.732Z,7.73
2018-10-18T02:21:14.313Z,7.97
2018-10-18T02:22:17.793Z,7.40
2018-10-18T02:23:21.409Z,7.53
2018-10-18T02:24:24.842Z,8.30
2018-10-18T02:25:28.256Z,7.40
2018-10-18T02:26:31.651Z,7.80
2018-10-18T02:27:35.091Z,7.70
2018-10-18T02:28:39.432Z,8.23
2018-10-18T02:29:42.963Z,7.63
2018-10-18T02:30:46.405Z,8.20
2018-10-18T02:31:49.814Z,7.37
2018-10-18T02:32:53.245Z,9.20
2018-10-18T02:33:56.747Z,7.53
2018-10-18T02:35:00.205Z,7.07
2018-10-18T02:36:03.674Z,7.77
2018-10-18T02:37:07.099Z,7.20
2018-10-18T02:38:10.505Z,7.80
2018-10-18T02:39:13.891Z,7.00
2018-10-18T02:40:17.263Z,8.40
2018-10-18T02:41:20.651Z,7.53
2018-10-18T02:42:24.083Z,7.87
2018-10-18T02:43:27.603Z,7.23
2018-10-18T02:44:31.046Z,8.27
2018-10-18T02:45:34.707Z,8.30
2018-10-18T02:46:38.101Z,7.57
2018-10-18T02:47:41.519Z,7.57
2018-10-18T02:48:44.939Z,8.10
2018-10-18T02:49:48.320Z,7.67
2018-10-18T02:50:51.718Z,7.80
2018-10-18T02:51:55.481Z,7.60
2018-10-18T02:52:59.087Z,8.50
2018-10-18T02:54:02.511Z,7.97
2018-10-18T02:55:06.235Z,7.57
2018-10-18T02:56:09.813Z,8.47
2018-10-18T02:57:13.263Z,7.60
2018-10-18T02:58:16.657Z,7.97
2018-10-18T02:59:20.018Z,7.50
2018-10-18T03:00:23.437Z,7.17
2018-10-18T03:01:26.850Z,7.37
2018-10-18T03:02:30.265Z,8.57
2018-10-18T03:03:33.670Z,7.30
2018-10-18T03:04:37.064Z,8.07
2018-10-18T03:05:40.439Z,8.33
2018-10-18T03:06:43.824Z,7.43
2018-10-18T03:07:47.250Z,8.40
2018-10-18T03:08:50.657Z,7.40
2018-10-18T03:09:54.133Z,7.53
2018-10-18T03:10:57.533Z,8.33
2018-10-18T03:12:01.061Z,7.63
2018-10-18T03:13:05.661Z,7.57
2018-10-18T03:14:09.984Z,8.00
2018-10-18T03:15:13.377Z,7.83
2018-10-18T03:16:16.762Z,7.40
2018-10-18T03:17:20.190Z,7.57
2018-10-18T03:18:23.642Z,8.07
2018-10-18T03:19:27.088Z,7.33
2018-10-18T03:20:30.494Z,7.40
2018-10-18T03:21:33.888Z,7.40
2018-10-18T03:22:37.291Z,8.27
2018-10-18T03:23:40.731Z,7.80
2018-10-18T03:24:44.094Z,7.40
2018-10-18T03:25:47.481Z,7.70
2018-10-18T03:26:50.900Z,7.53
2018-10-18T03:27:54.273Z,7.10
2018-10-18T03:28:57.707Z,7.07
2018-10-18T03:30:01.155Z,7.70
2018-10-18T03:31:04.810Z,7.67
2018-10-18T03:32:08.207Z,7.73
2018-10-18T03:33:11.626Z,7.00
2018-10-18T03:34:15.192Z,7.80
2018-10-18T03:35:18.621Z,8.57
2018-10-18T03:36:22.057Z,7.40
2018-10-18T03:37:25.418Z,6.60
2018-10-18T03:38:28.833Z,7.97
2018-10-18T03:39:32.234Z,7.20
2018-10-18T03:40:35.632Z,7.27
2018-10-18T03:41:39.096Z,6.97
2018-10-18T03:42:42.503Z,7.40
2018-10-18T03:43:45.870Z,6.90
2018-10-18T03:44:49.325Z,7.57
2018-10-18T03:45:52.853Z,7.00
2018-10-18T03:46:56.226Z,8.57
2018-10-18T03:48:00.261Z,7.13
2018-10-18T03:49:04.643Z,7.60
2018-10-18T03:50:08.337Z,7.80
2018-10-18T03:51:11.754Z,8.27
2018-10-18T03:52:15.161Z,6.90
2018-10-18T03:53:18.565Z,7.33
2018-10-18T03:54:21.977Z,7.40
2018-10-18T03:55:25.398Z,7.70
2018-10-18T03:56:28.797Z,8.10
2018-10-18T03:57:32.240Z,7.67
2018-10-18T03:58:35.629Z,7.20
2018-10-18T03:59:39.221Z,8.03
2018-10-18T04:00:42.556Z,7.03
2018-10-18T04:01:46.024Z,6.70
2018-10-18T04:02:49.426Z,7.00
2018-10-18T04:03:52.797Z,7.40
2018-10-18T04:04:56.272Z,6.90
2018-10-18T04:05:59.784Z,7.83
2018-10-18T04:07:03.176Z,7.10
2018-10-18T04:08:06.961Z,6.90
2018-10-18T04:09:11.063Z,7.13
2018-10-18T04:10:14.483Z,7.57
2018-10-18T04:11:17.912Z,7.03
2018-10-18T04:12:21.456Z,7.20
2018-10-18T04:13:24.960Z,7.23
2018-10-18T04:14:28.297Z,6.77
2018-10-18T04:15:31.824Z,7.33
2018-10-18T04:16:35.220Z,7.20
2018-10-18T04:17:38.584Z,7.00
2018-10-18T04:18:42.081Z,7.20
2018-10-18T04:19:45.493Z,6.80
2018-10-18T04:20:48.954Z,7.27
2018-10-18T04:21:52.394Z,7.57
2018-10-18T04:22:55.931Z,7.50
2018-10-18T04:23:59.386Z,6.97
2018-10-18T04:25:02.748Z,6.70
2018-10-18T04:26:06.170Z,6.70
2018-10-18T04:27:09.550Z,7.00
2018-10-18T04:28:12.914Z,6.87
2018-10-18T04:29:16.331Z,7.43
2018-10-18T04:30:20.095Z,8.03
2018-10-18T04:31:23.577Z,7.77
2018-10-18T04:32:27.050Z,7.23
2018-10-18T04:33:30.645Z,7.30
2018-10-18T04:34:34.038Z,7.20
2018-10-18T04:35:37.480Z,6.53
2018-10-18T04:36:40.907Z,7.27
2018-10-18T04:37:44.298Z,7.27
2018-10-18T04:38:47.705Z,6.93
2018-10-18T04:39:51.119Z,6.70
2018-10-18T04:40:54.546Z,7.17
2018-10-18T04:41:58.163Z,7.70
2018-10-18T04:43:01.616Z,7.00
2018-10-18T04:44:05.159Z,7.10
2018-10-18T04:45:09.152Z,8.13
2018-10-18T04:46:12.630Z,7.40
2018-10-18T04:47:16.485Z,8.60
2018-10-18T04:48:19.976Z,10.20
2018-10-18T04:49:23.341Z,9.83
2018-10-18T04:50:26.796Z,10.83
2018-10-18T04:51:30.221Z,13.10
2018-10-18T04:52:33.740Z,15.60
2018-10-18T04:53:37.140Z,14.60
2018-10-18T04:54:41.102Z,10.90
2018-10-18T04:55:44.505Z,11.10
2018-10-18T04:56:48.678Z,13.40
2018-10-18T04:57:52.135Z,11.20
2018-10-18T04:58:55.829Z,13.70
2018-10-18T04:59:59.244Z,12.60
2018-10-18T05:01:02.736Z,12.13
2018-10-18T05:02:06.527Z,11.60
2018-10-18T05:03:10.943Z,13.27
2018-10-18T05:04:14.557Z,14.03
2018-10-18T05:05:29.292Z,13.50
2018-10-18T05:06:32.704Z,12.37
2018-10-18T05:07:36.133Z,11.77
2018-10-18T05:08:39.526Z,11.93
2018-10-18T05:09:42.926Z,11.57
2018-10-18T05:10:46.392Z,11.53
2018-10-18T05:11:49.790Z,12.43
2018-10-18T05:12:53.242Z,12.70
2018-10-18T05:13:56.680Z,12.10
2018-10-18T05:15:00.139Z,11.93
2018-10-18T05:16:03.669Z,12.00
2018-10-18T05:17:07.274Z,14.47
2018-10-18T05:18:10.875Z,12.80
2018-10-18T05:19:14.335Z,13.30
2018-10-18T05:20:17.722Z,15.20
2018-10-18T05:21:21.218Z,13.40
2018-10-18T05:22:24.668Z,13.67
2018-10-18T05:23:28.057Z,13.17
2018-10-18T05:24:31.712Z,14.03
2018-10-18T05:25:35.338Z,14.73
2018-10-18T05:26:38.736Z,13.40
2018-10-18T05:27:42.220Z,13.90
2018-10-18T05:28:45.693Z,14.60
2018-10-18T05:29:49.096Z,15.07
2018-10-18T05:30:52.574Z,15.93
2018-10-18T05:31:55.931Z,17.80
2018-10-18T05:32:59.352Z,16.87
2018-10-18T05:34:02.800Z,17.50
2018-10-18T05:35:06.570Z,18.20
2018-10-18T05:36:09.999Z,17.27
2018-10-18T05:37:13.463Z,17.80
2018-10-18T05:38:16.814Z,18.77
2018-10-18T05:39:20.233Z,17.37
2018-10-18T05:40:23.698Z,17.10
2018-10-18T05:41:27.136Z,20.73
2018-10-18T05:42:30.534Z,21.83
2018-10-18T05:43:33.915Z,20.47
2018-10-18T05:44:37.353Z,21.07
2018-10-18T05:45:40.806Z,23.87
2018-10-18T05:46:44.391Z,24.20
2018-10-18T05:47:49.063Z,26.63
2018-10-18T05:48:52.448Z,25.00
2018-10-18T05:49:55.919Z,26.40
2018-10-18T05:50:59.344Z,27.30
2018-10-18T05:52:02.735Z,26.10
2018-10-18T05:53:06.261Z,26.43
2018-10-18T05:54:09.661Z,27.50
2018-10-18T05:55:13.501Z,27.30
2018-10-18T05:56:16.891Z,25.70
2018-10-18T05:57:20.293Z,27.63
2018-10-18T05:58:23.716Z,28.57
2018-10-18T05:59:27.177Z,28.03
2018-10-18T06:00:30.633Z,30.23
2018-10-18T06:01:34.023Z,32.47
2018-10-18T06:02:37.736Z,31.50
2018-10-18T06:03:41.155Z,33.00
2018-10-18T06:04:44.896Z,33.20
2018-10-18T06:05:48.380Z,31.90
2018-10-18T06:06:52.020Z,31.70
2018-10-18T06:07:55.624Z,31.83
2018-10-18T06:08:59.844Z,30.37
2018-10-18T06:10:03.419Z,31.20
2018-10-18T06:11:18.093Z,30.80
2018-10-18T06:12:21.504Z,28.57
2018-10-18T06:13:25.291Z,29.50
2018-10-18T06:14:29.498Z,30.63
2018-10-18T06:15:32.956Z,28.70
2018-10-18T06:16:36.512Z,29.50
2018-10-18T06:17:40.555Z,30.20
2018-10-18T06:18:44.183Z,29.17
2018-10-18T06:19:47.639Z,27.53
2018-10-18T06:20:51.045Z,27.67
2018-10-18T06:21:54.847Z,28.10
2018-10-18T06:22:58.437Z,28.37
2018-10-18T06:24:01.736Z,26.90
2018-10-18T06:25:06.268Z,26.30
2018-10-18T06:26:09.670Z,26.83
2018-10-18T06:27:13.084Z,25.97
2018-10-18T06:28:16.734Z,26.90
2018-10-18T06:29:20.173Z,26.20
2018-10-18T06:30:23.895Z,25.77
2018-10-18T06:31:28.192Z,26.00
2018-10-18T06:32:31.643Z,25.53
2018-10-18T06:33:35.050Z,24.30
2018-10-18T06:34:38.465Z,24.90
2018-10-18T06:35:41.931Z,24.90
2018-10-18T06:36:45.359Z,25.17
2018-10-18T06:37:48.801Z,24.87
2018-10-18T06:38:52.183Z,24.27
2018-10-18T06:39:55.647Z,23.90
2018-10-18T06:40:59.070Z,23.13
2018-10-18T06:42:02.553Z,23.00
2018-10-18T06:43:05.997Z,22.10
2018-10-18T06:44:09.460Z,22.87
2018-10-18T06:45:16.361Z,23.00
2018-10-18T06:46:19.762Z,20.67
2018-10-18T06:47:23.374Z,21.87
2018-10-18T06:48:26.774Z,21.40
2018-10-18T06:49:30.317Z,21.40
2018-10-18T06:50:33.748Z,21.40
2018-10-18T06:51:37.208Z,20.60
2018-10-18T06:52:40.852Z,21.80
2018-10-18T06:53:44.229Z,19.53
2018-10-18T06:54:47.685Z,21.53
2018-10-18T06:55:51.075Z,21.80
2018-10-18T06:56:54.464Z,20.63
2018-10-18T06:57:57.937Z,19.77
2018-10-18T06:59:01.325Z,21.40
2018-10-18T07:00:05.865Z,20.00
2018-10-18T07:01:09.275Z,20.23
2018-10-18T07:02:12.664Z,19.93
2018-10-18T07:03:16.142Z,19.90
2018-10-18T07:04:19.574Z,18.87
2018-10-18T07:05:23.103Z,19.90
2018-10-18T07:06:26.743Z,18.83
2018-10-18T07:07:30.265Z,20.13
2018-10-18T07:08:33.664Z,18.50
2018-10-18T07:09:37.077Z,18.90
2018-10-18T07:10:40.519Z,17.90
2018-10-18T07:11:43.961Z,17.63
2018-10-18T07:12:47.390Z,17.63
2018-10-18T07:13:50.951Z,18.40
2018-10-18T07:14:54.332Z,18.73
2018-10-18T07:15:57.753Z,19.37
2018-10-18T07:17:01.189Z,17.70
2018-10-18T07:18:04.991Z,18.70
2018-10-18T07:19:08.415Z,17.20
2018-10-18T07:20:12.891Z,16.97
2018-10-18T07:21:16.314Z,17.87
2018-10-18T07:22:19.754Z,16.60
2018-10-18T07:23:23.173Z,17.20
2018-10-18T07:24:26.613Z,16.20
2018-10-18T07:25:30.106Z,16.43
2018-10-18T07:26:33.498Z,16.73
2018-10-18T07:27:37.330Z,16.00
2018-10-18T07:28:40.781Z,15.80
2018-10-18T07:29:44.269Z,16.47
2018-10-18T07:30:47.687Z,16.00
2018-10-18T07:31:51.074Z,15.70
2018-10-18T07:32:54.535Z,16.27
2018-10-18T07:33:57.955Z,16.10
2018-10-18T07:35:01.667Z,15.27
2018-10-18T07:36:05.127Z,15.37
2018-10-18T07:37:08.559Z,14.90
2018-10-18T07:38:12.002Z,15.60
2018-10-18T07:39:15.679Z,15.23
2018-10-18T07:40:19.128Z,14.50
2018-10-18T07:41:22.680Z,15.17
2018-10-18T07:42:26.076Z,15.50
2018-10-18T07:43:29.519Z,15.37
2018-10-18T07:44:32.952Z,15.60
2018-10-18T07:45:36.429Z,15.43
2018-10-18T07:46:39.920Z,15.70
2018-10-18T07:47:43.940Z,15.30
2018-10-18T07:48:47.354Z,15.57
2018-10-18T07:49:50.888Z,14.30
2018-10-18T07:50:54.300Z,14.00
2018-10-18T07:51:57.745Z,15.33
2018-10-18T07:53:01.226Z,14.10
2018-10-18T07:54:04.689Z,14.50
2018-10-18T07:55:09.024Z,14.70
2018-10-18T07:56:12.494Z,13.47
2018-10-18T07:57:16.008Z,13.83
2018-10-18T07:58:19.489Z,14.50
2018-10-18T07:59:22.944Z,13.83
2018-10-18T08:00:26.486Z,13.80
2018-10-18T08:01:30.230Z,13.43
2018-10-18T08:02:33.828Z,12.80
2018-10-18T08:03:37.217Z,13.20
2018-10-18T08:04:40.618Z,12.77
2018-10-18T08:05:44.131Z,12.33
2018-10-18T08:06:47.558Z,13.50
2018-10-18T08:07:50.945Z,13.00
2018-10-18T08:08:54.374Z,12.87
2018-10-18T08:09:57.885Z,12.60
2018-10-18T08:11:01.403Z,12.13
2018-10-18T08:12:05.233Z,12.00
2018-10-18T08:13:08.806Z,12.67
2018-10-18T08:14:12.139Z,13.23
2018-10-18T08:15:16.586Z,11.47
2018-10-18T08:16:20.049Z,12.20
2018-10-18T08:17:23.612Z,12.37
2018-10-18T08:18:26.970Z,11.40
2018-10-18T08:19:30.551Z,11.77
2018-10-18T08:20:33.956Z,12.40
2018-10-18T08:21:37.614Z,12.00
2018-10-18T08:22:41.728Z,11.83
2018-10-18T08:23:45.142Z,11.20
2018-10-18T08:24:48.608Z,11.40
2018-10-18T08:25:52.039Z,12.27
2018-10-18T08:26:55.465Z,11.33
2018-10-18T08:27:58.916Z,11.80
2018-10-18T08:29:02.404Z,11.00
2018-10-18T08:30:08.613Z,11.67
2018-10-18T08:31:12.126Z,11.40
2018-10-18T08:32:15.429Z,10.70
2018-10-18T08:33:18.834Z,10.77
2018-10-18T08:34:22.305Z,10.97
2018-10-18T08:35:25.858Z,11.60
2018-10-18T08:36:29.486Z,11.77
2018-10-18T08:37:33.218Z,10.87
2018-10-18T08:38:36.616Z,11.37
2018-10-18T08:39:40.148Z,10.83
2018-10-18T08:40:43.620Z,10.30
2018-10-18T08:41:47.088Z,10.70
2018-10-18T08:42:50.521Z,10.20
2018-10-18T08:43:54.032Z,10.27
2018-10-18T08:44:57.493Z,10.70
2018-10-18T08:46:00.940Z,9.83
2018-10-18T08:47:04.546Z,10.20
2018-10-18T08:48:08.360Z,9.60
2018-10-18T08:49:11.876Z,10.60
2018-10-18T08:50:15.250Z,9.93
2018-10-18T08:51:18.628Z,10.50
2018-10-18T08:52:22.035Z,10.43
2018-10-18T08:53:25.570Z,10.17
2018-10-18T08:54:29.066Z,10.03
2018-10-18T08:55:32.539Z,10.57
2018-10-18T08:56:36.062Z,10.20
2018-10-18T08:57:39.656Z,10.50
2018-10-18T08:58:43.171Z,9.80
2018-10-18T08:59:46.652Z,9.87
2018-10-18T09:00:50.060Z,10.07
2018-10-18T09:01:53.457Z,10.07
2018-10-18T09:02:57.026Z,9.67
2018-10-18T09:04:00.717Z,10.40
2018-10-18T09:05:04.203Z,9.83
2018-10-18T09:06:07.609Z,10.10
2018-10-18T09:07:11.066Z,10.77
2018-10-18T09:08:14.529Z,10.27
2018-10-18T09:09:18.832Z,9.63
2018-10-18T09:10:22.303Z,8.60
2018-10-18T09:11:25.785Z,10.13
2018-10-18T09:12:29.234Z,9.77
2018-10-18T09:13:32.740Z,10.30
2018-10-18T09:14:36.390Z,9.57
2018-10-18T09:15:39.837Z,9.90
2018-10-18T09:16:43.477Z,9.60
2018-10-18T09:17:46.974Z,10.57
2018-10-18T09:18:50.463Z,9.63
2018-10-18T09:19:53.934Z,8.63
2018-10-18T09:20:57.339Z,9.80
2018-10-18T09:22:00.741Z,9.83
2018-10-18T09:23:04.164Z,9.70
2018-10-18T09:24:08.010Z,9.80
2018-10-18T09:25:12.079Z,9.17
2018-10-18T09:26:15.356Z,8.63
2018-10-18T09:27:18.741Z,9.50
2018-10-18T09:28:23.005Z,8.93
2018-10-18T09:29:26.735Z,9.60
2018-10-18T09:30:30.268Z,9.67
2018-10-18T09:31:33.739Z,9.27
2018-10-18T09:32:37.205Z,9.30
2018-10-18T09:33:40.720Z,9.00
2018-10-18T09:34:44.333Z,9.30
2018-10-18T09:35:47.787Z,9.87
2018-10-18T09:36:51.396Z,8.60
2018-10-18T09:37:54.826Z,8.60
2018-10-18T09:38:58.407Z,9.50
2018-10-18T09:40:01.829Z,8.83
2018-10-18T09:41:05.352Z,8.90
2018-10-18T09:42:08.802Z,9.50
2018-10-18T09:43:12.528Z,9.50
2018-10-18T09:44:15.983Z,9.57
2018-10-18T09:45:19.360Z,9.90
2018-10-18T09:46:22.782Z,8.53
2018-10-18T09:47:26.569Z,9.07
2018-10-18T09:48:29.977Z,8.20
2018-10-18T09:49:33.327Z,8.57
2018-10-18T09:50:36.747Z,9.60
2018-10-18T09:51:40.180Z,9.33
2018-10-18T09:52:43.605Z,8.97
2018-10-18T09:53:46.960Z,9.53
2018-10-18T09:54:50.431Z,9.13
2018-10-18T09:55:53.876Z,8.80
2018-10-18T09:56:57.342Z,8.93
2018-10-18T09:58:00.789Z,9.30
2018-10-18T09:59:04.259Z,9.43
2018-10-18T10:00:12.169Z,9.57
2018-10-18T10:01:20.793Z,8.63
2018-10-18T10:02:29.554Z,9.17
2018-10-18T10:03:33.022Z,8.20
2018-10-18T10:04:36.425Z,8.60
2018-10-18T10:05:40.081Z,8.97
2018-10-18T10:06:43.576Z,9.10
2018-10-18T10:07:47.180Z,8.90
2018-10-18T10:08:50.584Z,9.70
2018-10-18T10:09:54.071Z,9.50
2018-10-18T10:10:57.473Z,9.20
2018-10-18T10:12:00.920Z,8.53
2018-10-18T10:13:04.409Z,9.03
2018-10-18T10:14:07.914Z,8.83
2018-10-18T10:15:11.301Z,8.93
2018-10-18T10:16:15.687Z,9.20
2018-10-18T10:17:19.150Z,8.97
2018-10-18T10:18:25.479Z,8.40
2018-10-18T10:19:28.933Z,9.30
2018-10-18T10:20:32.510Z,8.23
2018-10-18T10:21:35.894Z,8.03
2018-10-18T10:22:39.307Z,7.73
2018-10-18T10:23:42.757Z,8.37
2018-10-18T10:24:46.264Z,8.20
2018-10-18T10:25:49.663Z,8.00
2018-10-18T10:26:53.525Z,7.73
2018-10-18T10:27:57.374Z,7.20
2018-10-18T10:29:00.787Z,8.00
2018-10-18T10:30:04.456Z,8.97
2018-10-18T10:31:08.399Z,8.87
2018-10-18T10:32:11.741Z,8.33
2018-10-18T10:33:15.408Z,8.17
2018-10-18T10:34:18.795Z,8.53
2018-10-18T10:35:22.169Z,7.93
2018-10-18T10:36:25.685Z,7.90
2018-10-18T10:37:29.082Z,8.63
2018-10-18T10:38:32.539Z,7.97
2018-10-18T10:39:35.956Z,8.20
2018-10-18T10:40:39.347Z,8.40
2018-10-18T10:41:42.749Z,8.70
2018-10-18T10:42:46.182Z,8.23
2018-10-18T10:43:49.644Z,9.07
2018-10-18T10:44:53.099Z,12.00
2018-10-18T10:45:56.639Z,12.70
2018-10-18T10:47:00.095Z,12.50
2018-10-18T10:48:03.671Z,12.77
2018-10-18T10:49:07.377Z,12.83
2018-10-18T10:50:10.851Z,13.57
2018-10-18T10:51:14.539Z,14.27
2018-10-18T10:52:18.285Z,17.60
2018-10-18T10:53:21.771Z,14.50
2018-10-18T10:54:25.284Z,15.90
2018-10-18T10:55:28.731Z,18.30
2018-10-18T10:56:32.150Z,18.87
2018-10-18T10:57:35.589Z,18.70
2018-10-18T10:58:39.067Z,18.30
2018-10-18T10:59:42.521Z,20.53
2018-10-18T11:01:18.894Z,19.43
2018-10-18T11:02:22.325Z,19.17
2018-10-18T11:03:25.775Z,18.93
2018-10-18T11:04:29.243Z,21.57
2018-10-18T11:05:32.664Z,21.50
2018-10-18T11:06:36.054Z,22.07
2018-10-18T11:07:39.523Z,21.37
2018-10-18T11:08:42.952Z,21.37
2018-10-18T11:09:46.593Z,22.27
2018-10-18T11:10:49.929Z,22.90
2018-10-18T11:11:53.402Z,23.07
2018-10-18T11:12:56.908Z,21.57
2018-10-18T11:14:00.599Z,22.20
2018-10-18T11:15:04.137Z,21.47
2018-10-18T11:16:07.863Z,23.13
2018-10-18T11:17:11.521Z,22.70
2018-10-18T11:18:14.983Z,23.07
2018-10-18T11:19:18.510Z,23.10
2018-10-18T11:20:22.014Z,20.70
2018-10-18T11:21:25.531Z,22.00
2018-10-18T11:22:28.961Z,21.67
2018-10-18T11:23:32.859Z,21.53
2018-10-18T11:24:36.482Z,22.07
2018-10-18T11:25:40.008Z,22.47
2018-10-18T11:26:43.444Z,22.30
2018-10-18T11:27:46.881Z,22.23
2018-10-18T11:28:50.297Z,21.93
2018-10-18T11:29:53.851Z,21.10
2018-10-18T11:30:57.447Z,21.47
2018-10-18T11:32:00.922Z,18.90
2018-10-18T11:33:04.565Z,20.53
2018-10-18T11:34:08.030Z,21.13
2018-10-18T11:35:11.587Z,21.77
2018-10-18T11:36:15.257Z,20.63
2018-10-18T11:37:18.678Z,20.63
2018-10-18T11:38:22.074Z,21.43
2018-10-18T11:39:25.552Z,21.97
2018-10-18T11:40:28.921Z,22.67
2018-10-18T11:41:32.379Z,20.87
2018-10-18T11:42:35.825Z,20.53
2018-10-18T11:43:39.261Z,20.90
2018-10-18T11:44:42.690Z,21.07
2018-10-18T11:45:46.092Z,20.17
2018-10-18T11:46:49.554Z,21.80
2018-10-18T11:47:52.986Z,19.90
2018-10-18T11:48:56.819Z,21.60
2018-10-18T11:50:01.538Z,22.03
2018-10-18T11:51:04.872Z,19.90
2018-10-18T11:52:08.414Z,20.30
2018-10-18T11:53:11.741Z,20.37
2018-10-18T11:54:15.253Z,18.67
2018-10-18T11:55:18.664Z,19.40
2018-10-18T11:56:22.068Z,19.20
2018-10-18T11:57:25.549Z,18.67
2018-10-18T11:58:28.962Z,18.43
2018-10-18T11:59:32.441Z,18.67
2018-10-18T12:00:35.822Z,17.43
2018-10-18T12:01:39.283Z,18.40
2018-10-18T12:02:42.894Z,18.33
2018-10-18T12:03:46.271Z,17.73
2018-10-18T12:04:49.716Z,18.07
2018-10-18T12:05:53.137Z,17.30
2018-10-18T12:06:56.677Z,17.70
2018-10-18T12:08:00.143Z,36.47
2018-10-18T12:09:04.781Z,48.10
2018-10-18T12:10:09.036Z,36.87
2018-10-18T12:11:12.661Z,42.37
2018-10-18T12:12:16.117Z,39.90
2018-10-18T12:13:19.579Z,46.07
2018-10-18T12:14:22.996Z,40.93
2018-10-18T12:15:26.577Z,39.53
2018-10-18T12:16:30.011Z,38.23
2018-10-18T12:17:33.592Z,41.13
2018-10-18T12:18:37.110Z,40.63
2018-10-18T12:19:40.660Z,40.37
2018-10-18T12:20:44.199Z,40.70
2018-10-18T12:21:47.633Z,41.47
2018-10-18T12:22:51.270Z,39.73
2018-10-18T12:23:54.730Z,40.57
2018-10-18T12:24:58.197Z,40.10
2018-10-18T12:26:01.875Z,38.37
2018-10-18T12:27:05.706Z,37.77
2018-10-18T12:28:09.175Z,38.87
2018-10-18T12:29:12.749Z,38.53
2018-10-18T12:30:16.383Z,38.07
2018-10-18T12:31:19.779Z,37.67
2018-10-18T12:32:23.260Z,37.00
2018-10-18T12:33:26.682Z,36.00
2018-10-18T12:34:30.126Z,36.13
2018-10-18T12:35:33.634Z,36.20
2018-10-18T12:36:37.153Z,35.13
2018-10-18T12:37:40.648Z,33.43
2018-10-18T12:38:45.492Z,32.80
2018-10-18T12:39:49.175Z,31.80
2018-10-18T12:40:52.682Z,31.97
2018-10-18T12:41:56.377Z,32.83
2018-10-18T12:43:01.223Z,33.70
2018-10-18T12:44:04.700Z,31.20
2018-10-18T12:45:09.848Z,31.93
2018-10-18T12:46:13.539Z,31.17
2018-10-18T12:47:17.058Z,29.33
2018-10-18T12:48:20.654Z,31.07
2018-10-18T12:49:23.976Z,30.53
2018-10-18T12:50:27.480Z,30.53
2018-10-18T12:51:30.957Z,29.70
2018-10-18T12:52:34.648Z,31.50
2018-10-18T12:53:38.120Z,30.20
2018-10-18T12:54:41.715Z,28.20
2018-10-18T12:55:45.112Z,28.10
2018-10-18T12:56:48.539Z,29.30
2018-10-18T12:57:52.048Z,28.67
2018-10-18T12:58:55.567Z,28.63
2018-10-18T12:59:59.290Z,27.20
2018-10-18T13:01:02.691Z,27.33
2018-10-18T13:02:06.465Z,28.43
2018-10-18T13:03:09.872Z,27.03
2018-10-18T13:04:13.322Z,26.97
2018-10-18T13:05:16.790Z,27.23
2018-10-18T13:06:20.211Z,26.17
2018-10-18T13:07:23.723Z,26.90
2018-10-18T13:08:27.141Z,25.33
2018-10-18T13:09:30.670Z,26.60
2018-10-18T13:10:34.168Z,28.27
2018-10-18T13:11:37.565Z,24.77
2018-10-18T13:12:41.426Z,26.30
2018-10-18T13:13:44.767Z,26.50
2018-10-18T13:14:48.240Z,26.53
2018-10-18T13:15:51.726Z,24.20
2018-10-18T13:16:55.245Z,26.53
2018-10-18T13:17:58.842Z,25.97
2018-10-18T13:19:02.316Z,24.77
2018-10-18T13:20:07.095Z,24.80
2018-10-18T13:21:10.486Z,24.60
2018-10-18T13:22:13.921Z,24.23
2018-10-18T13:23:17.433Z,24.60
2018-10-18T13:24:21.108Z,23.93
2018-10-18T13:25:24.641Z,24.07
2018-10-18T13:26:28.181Z,25.23
2018-10-18T13:27:31.772Z,23.80
2018-10-18T13:28:35.190Z,25.43
2018-10-18T13:29:38.585Z,23.73
2018-10-18T13:30:42.017Z,23.00
2018-10-18T13:31:45.571Z,22.20
2018-10-18T13:32:49.002Z,22.40
2018-10-18T13:33:52.442Z,22.67
2018-10-18T13:34:56.045Z,21.73
2018-10-18T13:35:59.615Z,23.03
2018-10-18T13:37:03.018Z,21.50
2018-10-18T13:38:06.523Z,22.77
2018-10-18T13:39:14.601Z,22.90
2018-10-18T13:40:17.977Z,21.43
2018-10-18T13:41:21.422Z,21.13
2018-10-18T13:42:24.883Z,21.17
2018-10-18T13:43:28.341Z,20.67
2018-10-18T13:44:31.824Z,20.33
2018-10-18T13:45:35.272Z,19.87
2018-10-18T13:46:39.404Z,19.87
2018-10-18T13:47:42.848Z,20.33
2018-10-18T13:48:46.266Z,20.30
2018-10-18T13:49:49.688Z,19.57
2018-10-18T13:50:53.102Z,20.10
2018-10-18T13:51:56.563Z,19.20